createdAt,value
2018-12-12T00:00:54.156Z,31.05
2018-12-12T00:03:21.713Z,27.37
2018-12-12T00:05:49.145Z,29.07
2018-12-12T00:08:16.552Z,28.85
2018-12-12T00:10:44.006Z,28.00
2018-12-12T00:13:11.467Z,36.35
2018-12-12T00:15:38.993Z,30.70
2018-12-12T00:18:06.960Z,32.30
2018-12-12T00:20:34.454Z,32.50
2018-12-12T00:23:01.946Z,33.88
2018-12-12T00:25:29.542Z,27.13
2018-12-12T00:27:57.077Z,29.57
2018-12-12T00:30:24.631Z,27.52
2018-12-12T00:32:52.087Z,28.50
2018-12-12T00:35:19.614Z,28.23
2018-12-12T00:37:47.242Z,27.55
2018-12-12T00:40:14.730Z,29.02
2018-12-12T00:42:42.190Z,29.95
2018-12-12T00:45:09.840Z,35.75
2018-12-12T00:47:37.477Z,29.00
2018-12-12T00:50:05.416Z,32.70
2018-12-12T00:52:32.951Z,28.60
2018-12-12T00:55:00.456Z,25.05
2018-12-12T00:57:28.151Z,31.42
2018-12-12T00:59:55.608Z,33.23
2018-12-12T01:02:23.310Z,28.17
2018-12-12T01:04:50.789Z,27.30
2018-12-12T01:07:18.277Z,29.40
2018-12-12T01:09:45.771Z,31.02
2018-12-12T01:12:13.406Z,30.62
2018-12-12T01:14:40.918Z,31.48
2018-12-12T01:17:08.465Z,26.62
2018-12-12T01:19:36.096Z,28.17
2018-12-12T01:22:03.820Z,25.35
2018-12-12T01:24:31.287Z,29.05
2018-12-12T01:26:58.819Z,30.20
2018-12-12T01:29:26.367Z,28.45
2018-12-12T01:31:53.889Z,27.48
2018-12-12T01:34:21.515Z,29.87
2018-12-12T01:36:49.151Z,25.27
2018-12-12T01:39:16.647Z,32.30
2018-12-12T01:41:44.479Z,26.50
2018-12-12T01:44:11.899Z,34.45
2018-12-12T01:46:39.391Z,30.30
2018-12-12T01:49:06.894Z,27.02
2018-12-12T01:51:34.400Z,30.15
2018-12-12T01:54:01.877Z,28.73
2018-12-12T01:56:29.374Z,25.95
2018-12-12T01:58:56.838Z,28.77
2018-12-12T02:01:24.330Z,28.50
2018-12-12T02:03:51.947Z,33.05
2018-12-12T02:06:19.577Z,32.05
2018-12-12T02:08:47.186Z,31.48
2018-12-12T02:11:14.757Z,32.25
2018-12-12T02:13:42.244Z,32.33
2018-12-12T02:16:09.917Z,32.60
2018-12-12T02:18:39.716Z,30.70
2018-12-12T02:21:07.413Z,28.62
2018-12-12T02:23:34.896Z,32.90
2018-12-12T02:26:02.413Z,32.55
2018-12-12T02:28:29.878Z,39.05
2018-12-12T02:30:57.520Z,31.60
2018-12-12T02:33:25.064Z,39.80
2018-12-12T02:35:52.568Z,38.48
2018-12-12T02:38:20.064Z,34.65
2018-12-12T02:40:47.710Z,29.87
2018-12-12T02:43:15.170Z,29.98
2018-12-12T02:45:42.532Z,35.78
2018-12-12T02:48:10.048Z,31.02
2018-12-12T02:50:37.654Z,33.25
2018-12-12T02:53:05.155Z,34.50
2018-12-12T02:55:32.797Z,34.58
2018-12-12T02:58:00.516Z,36.05
2018-12-12T03:00:28.035Z,30.00
2018-12-12T03:02:55.499Z,33.08
2018-12-12T03:05:23.061Z,36.00
2018-12-12T03:07:50.495Z,43.60
2018-12-12T03:10:18.119Z,33.60
2018-12-12T03:12:45.611Z,36.20
2018-12-12T03:15:13.208Z,33.70
2018-12-12T03:17:40.820Z,36.93
2018-12-12T03:20:08.504Z,36.17
2018-12-12T03:22:36.346Z,35.35
2018-12-12T03:25:04.040Z,36.48
2018-12-12T03:27:31.552Z,35.13
2018-12-12T03:29:59.048Z,36.33
2018-12-12T03:32:26.628Z,36.15
2018-12-12T03:34:54.162Z,38.78
2018-12-12T03:37:21.822Z,38.23
2018-12-12T03:39:49.337Z,37.98
2018-12-12T03:42:16.962Z,32.10
2018-12-12T03:44:44.445Z,36.42
2018-12-12T03:47:11.912Z,39.15
2018-12-12T03:49:39.375Z,35.88
2018-12-12T03:52:06.896Z,36.33
2018-12-12T03:54:34.408Z,35.83
2018-12-12T03:57:01.920Z,39.65
2018-12-12T03:59:29.546Z,35.55
2018-12-12T04:01:57.176Z,41.48
2018-12-12T04:04:24.589Z,38.88
2018-12-12T04:06:52.066Z,40.90
2018-12-12T04:09:19.545Z,38.38
2018-12-12T04:11:47.086Z,34.75
2018-12-12T04:14:14.611Z,38.67
2018-12-12T04:16:42.648Z,36.50
2018-12-12T04:19:10.436Z,34.70
2018-12-12T04:21:38.147Z,40.30
2018-12-12T04:24:05.759Z,36.80
2018-12-12T04:26:33.414Z,37.70
2018-12-12T04:29:00.988Z,42.73
2018-12-12T04:31:28.547Z,39.70
2018-12-12T04:33:56.150Z,35.78
2018-12-12T04:36:24.029Z,40.67
2018-12-12T04:38:52.516Z,42.50
2018-12-12T04:41:20.176Z,38.80
2018-12-12T04:43:47.796Z,42.20
2018-12-12T04:46:15.390Z,38.30
2018-12-12T04:48:43.024Z,38.30
2018-12-12T04:51:10.857Z,40.63
2018-12-12T04:53:38.352Z,40.43
2018-12-12T04:56:05.759Z,39.27
2018-12-12T04:58:33.272Z,42.27
2018-12-12T05:01:00.822Z,34.45
2018-12-12T05:03:28.438Z,36.50
2018-12-12T05:05:55.957Z,39.40
2018-12-12T05:08:23.526Z,35.80
2018-12-12T05:10:51.015Z,45.15
2018-12-12T05:13:18.540Z,35.55
2018-12-12T05:15:46.136Z,41.42
2018-12-12T05:18:13.700Z,43.33
2018-12-12T05:20:41.204Z,36.55
2018-12-12T05:23:08.866Z,37.42
2018-12-12T05:25:36.372Z,36.40
2018-12-12T05:28:03.906Z,38.65
2018-12-12T05:30:31.478Z,46.63
2018-12-12T05:32:59.005Z,37.08
2018-12-12T05:35:26.600Z,39.18
2018-12-12T05:37:54.135Z,45.38
2018-12-12T05:40:22.228Z,37.50
2018-12-12T05:42:49.897Z,38.15
2018-12-12T05:45:18.283Z,37.28
2018-12-12T05:47:45.905Z,42.48
2018-12-12T05:50:13.451Z,37.05
2018-12-12T05:52:41.093Z,38.50
2018-12-12T05:55:08.595Z,38.50
2018-12-12T05:57:36.145Z,36.95
2018-12-12T06:00:04.172Z,36.17
2018-12-12T06:02:31.681Z,40.05
2018-12-12T06:04:59.203Z,36.53
2018-12-12T06:07:26.667Z,41.70
2018-12-12T06:09:54.299Z,34.40
2018-12-12T06:12:21.855Z,33.85
2018-12-12T06:14:49.411Z,34.40
2018-12-12T06:17:16.975Z,40.23
2018-12-12T06:19:44.987Z,43.23
2018-12-12T06:22:13.152Z,36.17
2018-12-12T06:24:40.938Z,44.65
2018-12-12T06:27:08.368Z,40.85
2018-12-12T06:29:39.582Z,39.38
2018-12-12T06:32:07.130Z,39.85
2018-12-12T06:34:34.771Z,42.98
2018-12-12T06:37:02.335Z,39.60
2018-12-12T06:39:30.078Z,43.48
2018-12-12T06:41:57.736Z,44.13
2018-12-12T06:44:25.258Z,46.68
2018-12-12T06:46:52.899Z,38.10
2018-12-12T06:49:20.395Z,37.70
2018-12-12T06:51:47.955Z,42.75
2018-12-12T06:54:15.527Z,37.35
2018-12-12T06:56:43.417Z,39.48
2018-12-12T06:59:11.091Z,40.83
2018-12-12T07:01:38.953Z,39.65
2018-12-12T07:04:06.501Z,40.33
2018-12-12T07:06:33.989Z,39.23
2018-12-12T07:09:01.590Z,36.25
2018-12-12T07:11:29.255Z,34.53
2018-12-12T07:13:56.810Z,36.58
2018-12-12T07:16:24.689Z,37.05
2018-12-12T07:18:52.078Z,42.67
2018-12-12T07:21:19.603Z,34.75
2018-12-12T07:23:47.432Z,33.90
2018-12-12T07:26:15.005Z,37.03
2018-12-12T07:28:42.613Z,36.20
2018-12-12T07:31:10.139Z,39.33
2018-12-12T07:33:37.679Z,35.17
2018-12-12T07:36:05.145Z,40.03
2018-12-12T07:38:32.823Z,34.25
2018-12-12T07:41:00.313Z,36.53
2018-12-12T07:43:27.983Z,47.15
2018-12-12T07:45:55.513Z,39.73
2018-12-12T07:48:23.072Z,33.88
2018-12-12T07:50:50.579Z,37.35
2018-12-12T07:53:18.098Z,37.28
2018-12-12T07:55:45.627Z,49.80
2018-12-12T07:58:13.843Z,41.92
2018-12-12T08:00:41.387Z,41.75
2018-12-12T08:03:11.871Z,40.95
2018-12-12T08:05:39.363Z,42.13
2018-12-12T08:08:06.843Z,38.80
2018-12-12T08:10:34.390Z,39.63
2018-12-12T08:13:01.869Z,41.25
2018-12-12T08:15:29.548Z,41.85
2018-12-12T08:17:57.311Z,39.33
2018-12-12T08:20:24.955Z,34.90
2018-12-12T08:22:53.627Z,35.95
2018-12-12T08:25:21.533Z,38.48
2018-12-12T08:27:49.251Z,41.60
2018-12-12T08:30:17.017Z,33.08
2018-12-12T08:32:44.614Z,34.65
2018-12-12T08:35:12.116Z,33.05
2018-12-12T08:37:39.683Z,35.55
2018-12-12T08:40:08.300Z,30.72
2018-12-12T08:42:35.678Z,32.05
2018-12-12T08:45:03.997Z,32.45
2018-12-12T08:47:31.680Z,34.10
2018-12-12T08:49:59.248Z,35.58
2018-12-12T08:52:26.712Z,32.83
2018-12-12T08:54:54.192Z,34.05
2018-12-12T08:57:22.503Z,34.48
2018-12-12T08:59:50.172Z,35.30
2018-12-12T09:02:17.841Z,32.35
2018-12-12T09:04:45.417Z,35.38
2018-12-12T09:07:12.926Z,35.60
2018-12-12T09:09:40.460Z,32.98
2018-12-12T09:12:08.107Z,31.05
2018-12-12T09:14:35.778Z,28.35
2018-12-12T09:17:09.481Z,30.77
2018-12-12T09:19:33.162Z,29.63
2018-12-12T09:22:00.728Z,30.27
2018-12-12T09:24:28.471Z,29.00
2018-12-12T09:26:56.106Z,25.95
2018-12-12T09:29:23.538Z,27.48
2018-12-12T09:31:51.102Z,30.85
2018-12-12T09:34:18.609Z,31.50
2018-12-12T09:36:46.275Z,30.02
2018-12-12T09:39:13.904Z,33.58
2018-12-12T09:41:41.448Z,32.03
2018-12-12T09:44:09.078Z,31.60
2018-12-12T09:46:36.578Z,30.25
2018-12-12T09:49:04.161Z,25.62
2018-12-12T09:51:31.654Z,29.48
2018-12-12T09:53:59.155Z,29.05
2018-12-12T09:56:26.715Z,27.40
2018-12-12T09:58:54.228Z,30.52
2018-12-12T10:01:21.780Z,29.48
2018-12-12T10:03:49.326Z,29.57
2018-12-12T10:06:16.961Z,26.82
2018-12-12T10:08:44.666Z,27.05
2018-12-12T10:11:12.218Z,22.45
2018-12-12T10:13:39.592Z,21.48
2018-12-12T10:16:07.246Z,21.50
2018-12-12T10:18:34.778Z,27.32
2018-12-12T10:21:02.275Z,23.02
2018-12-12T10:23:29.934Z,24.27
2018-12-12T10:25:57.402Z,17.32
2018-12-12T10:28:24.869Z,19.55
2018-12-12T10:30:52.455Z,22.13
2018-12-12T10:33:20.012Z,19.32
2018-12-12T10:35:47.551Z,21.07
2018-12-12T10:38:15.218Z,15.83
2018-12-12T10:40:42.987Z,16.15
2018-12-12T10:43:10.547Z,17.82
2018-12-12T10:45:38.287Z,17.52
2018-12-12T10:48:05.867Z,16.85
2018-12-12T10:50:33.391Z,19.25
2018-12-12T10:53:00.997Z,16.07
2018-12-12T10:55:28.535Z,14.93
2018-12-12T10:57:56.031Z,14.38
2018-12-12T11:00:23.592Z,19.52
2018-12-12T11:02:56.940Z,17.15
2018-12-12T11:05:24.928Z,16.82
2018-12-12T11:07:52.330Z,17.25
2018-12-12T11:10:19.932Z,15.43
2018-12-12T11:12:47.460Z,14.95
2018-12-12T11:15:15.045Z,15.45
2018-12-12T11:17:42.659Z,16.50
2018-12-12T11:20:10.469Z,12.40
2018-12-12T11:22:38.051Z,13.40
2018-12-12T11:25:05.702Z,14.47
2018-12-12T11:27:33.278Z,10.58
2018-12-12T11:30:00.857Z,13.05
2018-12-12T11:32:28.752Z,12.85
2018-12-12T11:34:56.355Z,11.03
2018-12-12T11:37:24.111Z,11.90
2018-12-12T11:39:51.675Z,9.60
2018-12-12T11:42:19.237Z,10.37
2018-12-12T11:44:46.907Z,8.40
2018-12-12T11:47:14.473Z,7.97
2018-12-12T11:49:42.086Z,8.80
2018-12-12T11:52:09.690Z,8.00
2018-12-12T11:54:37.344Z,7.33
2018-12-12T11:57:05.478Z,7.57
2018-12-12T11:59:33.012Z,7.63
2018-12-12T12:02:00.430Z,8.03
2018-12-12T12:04:28.092Z,5.77
2018-12-12T12:06:55.462Z,6.53
2018-12-12T12:09:23.011Z,5.50
2018-12-12T12:11:50.508Z,3.53
2018-12-12T12:14:18.053Z,5.40
2018-12-12T12:16:45.832Z,4.63
2018-12-12T12:19:13.409Z,5.33
2018-12-12T12:21:40.916Z,4.63
2018-12-12T12:24:08.558Z,3.90
2018-12-12T12:26:36.225Z,3.70
2018-12-12T12:29:04.389Z,9.73
2018-12-12T12:31:32.146Z,6.23
2018-12-12T12:34:03.212Z,4.27
2018-12-12T12:36:29.249Z,7.03
2018-12-12T12:38:56.764Z,3.30
2018-12-12T12:41:24.471Z,4.20
2018-12-12T12:43:52.060Z,4.87
2018-12-12T12:46:19.779Z,3.60
2018-12-12T12:48:47.294Z,3.50
2018-12-12T12:51:14.815Z,4.30
2018-12-12T12:53:42.381Z,7.70
2018-12-12T12:56:09.929Z,4.60
2018-12-12T12:58:37.444Z,3.43
2018-12-12T13:01:05.757Z,4.27
2018-12-12T13:03:33.266Z,4.43
2018-12-12T13:06:00.833Z,4.47
2018-12-12T13:08:28.316Z,6.73
2018-12-12T13:10:55.829Z,6.57
2018-12-12T13:13:24.052Z,7.00
2018-12-12T13:15:52.102Z,6.27
2018-12-12T13:18:19.737Z,8.50
2018-12-12T13:20:47.321Z,6.47
2018-12-12T13:23:16.023Z,4.33
2018-12-12T13:25:43.707Z,4.50
2018-12-12T13:28:11.297Z,5.57
2018-12-12T13:30:38.969Z,3.87
2018-12-12T13:33:06.877Z,3.00
2018-12-12T13:35:34.369Z,3.65
2018-12-12T13:38:01.870Z,4.43
2018-12-12T13:40:30.021Z,4.17
2018-12-12T13:42:57.641Z,4.87
2018-12-12T13:47:59.644Z,3.70
2018-12-12T13:50:27.232Z,4.70
2018-12-12T13:52:54.691Z,6.47
2018-12-12T13:55:22.259Z,2.93
2018-12-12T13:57:49.720Z,3.30
2018-12-12T14:00:17.240Z,5.12
2018-12-12T14:02:45.052Z,2.50
2018-12-12T14:05:12.620Z,2.42
2018-12-12T14:07:40.324Z,2.50
2018-12-12T14:10:07.870Z,3.92
2018-12-12T14:12:35.932Z,3.60
2018-12-12T14:15:04.387Z,4.20
2018-12-12T14:17:32.025Z,2.50
2018-12-12T14:19:59.564Z,2.85
2018-12-12T14:22:27.066Z,4.25
2018-12-12T14:24:54.583Z,2.62
2018-12-12T14:27:22.124Z,3.03
2018-12-12T14:29:49.549Z,3.25
2018-12-12T14:32:17.127Z,3.53
2018-12-12T14:34:44.974Z,3.60
2018-12-12T14:37:12.498Z,4.72
2018-12-12T14:39:40.353Z,3.17
2018-12-12T14:42:07.864Z,3.52
2018-12-12T14:44:35.358Z,4.87
2018-12-12T14:47:03.065Z,3.25
2018-12-12T14:49:30.670Z,4.30
2018-12-12T14:51:58.288Z,3.55
2018-12-12T14:54:25.853Z,3.50
2018-12-12T14:56:53.373Z,4.03
2018-12-12T14:59:21.027Z,3.47
2018-12-12T15:01:48.730Z,5.30
2018-12-12T15:04:16.351Z,5.28
2018-12-12T15:06:43.953Z,5.60
2018-12-12T15:09:11.519Z,6.35
2018-12-12T15:11:38.983Z,6.25
2018-12-12T15:14:06.615Z,7.53
2018-12-12T15:16:34.180Z,4.92
2018-12-12T15:19:01.692Z,6.78
2018-12-12T15:21:29.246Z,7.17
2018-12-12T15:23:56.873Z,5.78
2018-12-12T15:26:24.533Z,5.45
2018-12-12T15:28:52.087Z,5.78
2018-12-12T15:31:19.767Z,7.60
2018-12-12T15:33:47.451Z,5.70
2018-12-12T15:36:14.993Z,5.97
2018-12-12T15:38:42.754Z,6.22
2018-12-12T15:41:10.277Z,8.83
2018-12-12T15:43:37.824Z,7.78
2018-12-12T15:46:05.554Z,8.38
2018-12-12T15:48:33.110Z,8.98
2018-12-12T15:51:00.644Z,6.33
2018-12-12T15:53:28.252Z,8.10
2018-12-12T15:55:55.761Z,7.12
2018-12-12T15:58:23.419Z,6.05
2018-12-12T16:00:51.119Z,9.20
2018-12-12T16:03:18.980Z,6.62
2018-12-12T16:05:46.531Z,8.20
2018-12-12T16:08:14.137Z,8.13
2018-12-12T16:10:41.637Z,8.25
2018-12-12T16:13:09.141Z,8.63
2018-12-12T16:15:36.617Z,8.90
2018-12-12T16:18:04.275Z,5.83
2018-12-12T16:20:31.921Z,6.12
2018-12-12T16:22:59.461Z,12.00
2018-12-12T16:25:26.950Z,6.75
2018-12-12T16:27:54.491Z,6.58
2018-12-12T16:30:22.241Z,7.45
2018-12-12T16:32:49.800Z,6.80
2018-12-12T16:35:17.342Z,6.75
2018-12-12T16:37:45.199Z,6.08
2018-12-12T16:40:13.569Z,7.72
2018-12-12T16:42:41.425Z,8.40
2018-12-12T16:45:08.863Z,10.25
2018-12-12T16:47:36.485Z,8.28
2018-12-12T16:50:04.750Z,9.33
2018-12-12T16:52:32.394Z,10.30
2018-12-12T16:54:59.997Z,12.90
2018-12-12T16:57:27.484Z,8.15
2018-12-12T16:59:55.127Z,7.42
2018-12-12T17:02:22.756Z,10.88
2018-12-12T17:04:50.496Z,10.05
2018-12-12T17:07:18.128Z,8.95
2018-12-12T17:09:45.702Z,9.63
2018-12-12T17:12:13.295Z,9.48
2018-12-12T17:14:41.034Z,8.20
2018-12-12T17:17:08.515Z,8.08
2018-12-12T17:19:36.073Z,25.12
2018-12-12T17:22:03.824Z,11.73
2018-12-12T17:24:31.389Z,11.00
2018-12-12T17:26:58.903Z,10.72
2018-12-12T17:29:26.497Z,9.50
2018-12-12T17:31:54.070Z,10.50
2018-12-12T17:34:21.630Z,9.68
2018-12-12T17:36:49.142Z,8.85
2018-12-12T17:39:16.807Z,8.60
2018-12-12T17:41:44.669Z,8.95
2018-12-12T17:44:12.204Z,9.38
2018-12-12T17:46:39.727Z,11.93
2018-12-12T17:49:07.224Z,9.15
2018-12-12T17:51:34.942Z,7.95
2018-12-12T17:54:02.537Z,9.58
2018-12-12T17:56:30.106Z,9.05
2018-12-12T17:58:57.658Z,10.35
2018-12-12T18:01:25.371Z,9.28
2018-12-12T18:03:53.009Z,8.50
2018-12-12T18:06:20.511Z,10.13
2018-12-12T18:08:48.106Z,8.78
2018-12-12T18:11:15.714Z,7.47
2018-12-12T18:13:43.387Z,10.32
2018-12-12T18:16:10.960Z,10.58
2018-12-12T18:18:38.625Z,7.25
2018-12-12T18:21:06.369Z,8.68
2018-12-12T18:23:34.000Z,7.47
2018-12-12T18:26:01.517Z,9.00
2018-12-12T18:28:28.949Z,8.13
2018-12-12T18:30:56.559Z,7.42
2018-12-12T18:33:24.291Z,7.42
2018-12-12T18:35:51.913Z,9.75
2018-12-12T18:38:19.368Z,10.78
2018-12-12T18:40:46.956Z,9.10
2018-12-12T18:43:14.581Z,7.00
2018-12-12T18:45:42.115Z,10.63
2018-12-12T18:48:09.906Z,6.78
2018-12-12T18:50:37.468Z,9.58
2018-12-12T18:53:05.128Z,7.92
2018-12-12T18:55:33.049Z,7.25
2018-12-12T18:58:00.598Z,6.97
2018-12-12T19:00:28.257Z,7.97
2018-12-12T19:02:55.809Z,8.30
2018-12-12T19:05:28.245Z,7.62
2018-12-12T19:07:53.094Z,7.22
2018-12-12T19:10:20.919Z,10.45
2018-12-12T19:12:49.654Z,8.15
2018-12-12T19:15:17.445Z,10.08
2018-12-12T19:17:45.101Z,10.60
2018-12-12T19:20:12.649Z,8.10
2018-12-12T19:22:40.181Z,11.60
2018-12-12T19:25:07.952Z,9.30
2018-12-12T19:27:35.515Z,10.10
2018-12-12T19:30:03.980Z,6.95
2018-12-12T19:32:31.479Z,10.38
2018-12-12T19:34:59.052Z,9.23
2018-12-12T19:37:27.300Z,8.75
2018-12-12T19:39:57.090Z,8.40
2018-12-12T19:42:26.050Z,7.55
2018-12-12T19:44:54.736Z,6.58
2018-12-12T19:47:23.179Z,7.15
2018-12-12T19:49:50.984Z,5.85
2018-12-12T19:52:18.516Z,7.22
2018-12-12T19:54:46.271Z,6.10
2018-12-12T19:57:14.220Z,6.03
2018-12-12T19:59:41.971Z,6.50
2018-12-12T20:02:09.583Z,6.30
2018-12-12T20:04:37.195Z,6.72
2018-12-12T20:07:05.088Z,7.15
2018-12-12T20:09:32.689Z,6.70
2018-12-12T20:12:00.257Z,5.55
2018-12-12T20:14:27.732Z,6.20
2018-12-12T20:16:55.405Z,8.30
2018-12-12T20:19:23.035Z,7.28
2018-12-12T20:21:50.914Z,10.00
2018-12-12T20:24:18.411Z,9.13
2018-12-12T20:26:46.103Z,6.20
2018-12-12T20:29:13.652Z,7.87
2018-12-12T20:31:41.327Z,8.03
2018-12-12T20:34:08.922Z,10.08
2018-12-12T20:36:36.496Z,9.35
2018-12-12T20:39:06.272Z,7.85
2018-12-12T20:41:34.488Z,7.35
2018-12-12T20:44:02.090Z,8.43
2018-12-12T20:46:29.633Z,8.40
2018-12-12T20:48:57.212Z,8.20
2018-12-12T20:51:24.954Z,7.45
2018-12-12T20:53:52.783Z,6.83
2018-12-12T20:56:20.495Z,6.80
2018-12-12T20:58:48.044Z,7.65
2018-12-12T21:01:15.641Z,5.65
2018-12-12T21:03:43.135Z,7.78
2018-12-12T21:06:10.735Z,8.30
2018-12-12T21:08:38.259Z,9.10
2018-12-12T21:11:05.809Z,6.53
2018-12-12T21:13:33.371Z,8.10
2018-12-12T21:16:00.926Z,6.45
2018-12-12T21:18:28.427Z,9.38
2018-12-12T21:21:03.212Z,8.35
2018-12-12T21:23:30.784Z,8.25
2018-12-12T21:25:58.533Z,10.58
2018-12-12T21:28:26.357Z,10.60
2018-12-12T21:30:53.993Z,8.25
2018-12-12T21:33:21.532Z,10.78
2018-12-12T21:35:49.047Z,9.05
2018-12-12T21:38:16.651Z,10.05
2018-12-12T21:40:44.169Z,8.13
2018-12-12T21:43:11.853Z,9.40
2018-12-12T21:45:39.443Z,9.05
2018-12-12T21:48:07.018Z,8.63
2018-12-12T21:50:34.578Z,10.10
2018-12-12T21:53:02.088Z,8.40
2018-12-12T21:55:29.692Z,9.20
2018-12-12T21:57:57.297Z,8.90
2018-12-12T22:00:25.457Z,10.05
2018-12-12T22:02:52.980Z,9.80
2018-12-12T22:05:20.504Z,8.38
2018-12-12T22:07:47.910Z,11.45
2018-12-12T22:10:15.564Z,7.95
2018-12-12T22:12:43.072Z,8.30
2018-12-12T22:15:10.572Z,6.78
2018-12-12T22:17:38.694Z,10.05
2018-12-12T22:20:06.491Z,8.00
2018-12-12T22:22:33.973Z,7.55
2018-12-12T22:25:01.548Z,7.00
2018-12-12T22:27:29.075Z,8.25
2018-12-12T22:29:56.693Z,7.05
2018-12-12T22:32:24.236Z,7.28
2018-12-12T22:34:51.803Z,8.20
2018-12-12T22:37:19.464Z,8.65
2018-12-12T22:39:47.083Z,7.03
2018-12-12T22:42:14.624Z,8.03
2018-12-12T22:44:42.180Z,7.22
2018-12-12T22:49:44.120Z,9.05
2018-12-12T22:52:11.631Z,8.15
2018-12-12T22:54:39.187Z,8.28
2018-12-12T22:57:06.624Z,8.90
2018-12-12T22:59:34.044Z,8.45
2018-12-12T23:02:01.599Z,9.33
2018-12-12T23:04:29.242Z,10.35
2018-12-12T23:06:59.905Z,8.70
2018-12-12T23:09:27.474Z,10.60
2018-12-12T23:12:02.068Z,7.30
2018-12-12T23:14:29.614Z,7.55
2018-12-12T23:16:57.106Z,7.30
2018-12-12T23:19:24.701Z,8.33
2018-12-12T23:21:52.285Z,7.30
2018-12-12T23:24:25.069Z,8.90
2018-12-12T23:26:49.247Z,7.87
2018-12-12T23:29:16.834Z,8.55
2018-12-12T23:31:44.401Z,7.40
2018-12-12T23:34:11.923Z,7.95
2018-12-12T23:36:39.469Z,8.80
2018-12-12T23:39:07.211Z,9.78
2018-12-12T23:41:34.827Z,9.00
2018-12-12T23:44:02.435Z,10.63
2018-12-12T23:46:30.135Z,7.95
2018-12-12T23:48:57.791Z,8.45
2018-12-12T23:51:25.519Z,10.30
2018-12-12T23:53:53.144Z,10.32
2018-12-12T23:56:20.699Z,9.25
2018-12-12T23:58:48.249Z,10.18
